Time;durP1;ratioP1;P1;durP2;ratioP2;P2;SDS_P1;SDS_P2;PMS_P1;PMS_P2;Temp;Humidity;BMP_temperature;BMP_pressure;BME280_temperature;BME280_humidity;BME280_pressure;Samples;Min_cycle;Max_cycle;Signal;HPM_P1;HPM_P2
2022/07/16 00:02:09;;;;;;;2.95;2.65;;;15.80;99.90;;;;;;4975900;28;20050;-75
2022/07/16 00:04:34;;;;;;;3.63;2.58;;;15.60;99.90;;;;;;4993532;28;20405;-74
2022/07/16 00:07:00;;;;;;;5.55;2.78;;;15.60;99.90;;;;;;4992230;28;20423;-74
2022/07/16 00:09:26;;;;;;;5.85;2.30;;;15.70;99.90;;;;;;4975698;28;20404;-74
2022/07/16 00:11:51;;;;;;;4.82;2.80;;;15.70;99.90;;;;;;4975935;28;20125;-74
2022/07/16 00:14:18;;;;;;;5.25;2.80;;;15.50;99.90;;;;;;4992150;28;20042;-74
2022/07/16 00:16:44;;;;;;;7.32;2.83;;;15.60;99.90;;;;;;4975799;28;20046;-74
2022/07/16 00:19:15;;;;;;;3.80;2.30;;;15.50;99.90;;;;;;4975959;28;20053;-74
2022/07/16 00:21:43;;;;;;;5.70;2.97;;;15.50;99.90;;;;;;4975667;28;20522;-74
2022/07/16 00:24:09;;;;;;;5.28;2.45;;;15.50;99.90;;;;;;4975614;28;20050;-74
2022/07/16 00:26:34;;;;;;;4.43;2.67;;;15.50;99.90;;;;;;4975708;28;20124;-74
2022/07/16 00:29:00;;;;;;;4.68;3.03;;;15.60;99.90;;;;;;4975830;28;20034;-74
2022/07/16 00:31:27;;;;;;;4.47;2.85;;;15.70;99.90;;;;;;4975476;28;20455;-74
2022/07/16 00:33:52;;;;;;;5.35;2.80;;;15.80;99.90;;;;;;4975364;28;20042;-75
2022/07/16 00:36:18;;;;;;;4.53;2.53;;;15.70;99.90;;;;;;4991629;28;20129;-75
2022/07/16 00:38:43;;;;;;;5.35;2.65;;;15.80;99.90;;;;;;4975717;28;20073;-75
2022/07/16 00:41:16;;;;;;;3.50;2.75;;;15.60;99.90;;;;;;4975056;28;20097;-74
2022/07/16 00:43:56;;;;;;;5.68;2.80;;;15.80;99.90;;;;;;4975322;28;20487;-74
2022/07/16 00:46:21;;;;;;;4.20;2.95;;;15.70;99.90;;;;;;4959224;28;20042;-74
2022/07/16 00:48:47;;;;;;;5.43;3.20;;;15.70;99.90;;;;;;4974987;28;20385;-75
2022/07/16 00:51:14;;;;;;;6.70;3.10;;;15.90;99.90;;;;;;4974996;28;20484;-74
2022/07/16 00:53:42;;;;;;;4.72;2.90;;;15.60;99.90;;;;;;4975376;28;20424;-74
2022/07/16 00:56:09;;;;;;;7.65;3.63;;;15.80;99.90;;;;;;4975188;28;20042;-74
2022/07/16 00:58:39;;;;;;;7.05;3.63;;;15.50;99.90;;;;;;4975376;28;20038;-74
2022/07/16 01:01:06;;;;;;;9.63;4.15;;;15.50;99.90;;;;;;4975034;28;20038;-74
2022/07/16 01:03:33;;;;;;;5.75;3.50;;;15.50;99.90;;;;;;4974987;28;20047;-74
2022/07/16 01:05:59;;;;;;;8.27;3.75;;;15.70;99.90;;;;;;4958966;28;20078;-74
2022/07/16 01:08:26;;;;;;;8.77;4.45;;;15.60;99.90;;;;;;4975008;28;20049;-74
2022/07/16 01:10:53;;;;;;;5.57;3.88;;;15.40;99.90;;;;;;4975015;28;20050;-74
2022/07/16 01:13:19;;;;;;;5.50;3.47;;;15.50;99.90;;;;;;4975092;28;20051;-74
2022/07/16 01:15:44;;;;;;;5.07;3.10;;;15.50;99.90;;;;;;4974824;28;20579;-74
2022/07/16 01:18:10;;;;;;;4.80;3.10;;;15.30;99.90;;;;;;4992538;28;20046;-74
2022/07/16 01:20:35;;;;;;;4.13;2.80;;;15.30;99.90;;;;;;4974644;28;20519;-74
2022/07/16 01:23:01;;;;;;;3.00;2.30;;;15.50;99.90;;;;;;4992316;28;20408;-73
2022/07/16 01:25:28;;;;;;;4.07;2.42;;;15.40;99.90;;;;;;4992255;28;20049;-74
2022/07/16 01:27:53;;;;;;;3.33;1.90;;;15.30;99.90;;;;;;4975002;28;20400;-74
2022/07/16 01:30:19;;;;;;;5.57;2.20;;;15.30;99.90;;;;;;4991905;28;20093;-73
2022/07/16 01:32:44;;;;;;;4.40;2.08;;;15.30;99.90;;;;;;4974710;28;20641;-74
2022/07/16 01:35:10;;;;;;;4.35;1.90;;;15.40;99.90;;;;;;4992209;28;20402;-74
2022/07/16 01:37:36;;;;;;;6.88;2.60;;;15.30;99.90;;;;;;4992277;28;20101;-73
2022/07/16 01:40:02;;;;;;;3.67;1.75;;;15.30;99.90;;;;;;4991912;28;20053;-74
2022/07/16 01:42:28;;;;;;;2.85;1.70;;;15.40;99.90;;;;;;4991964;28;20081;-74
2022/07/16 01:44:54;;;;;;;2.55;1.83;;;15.40;99.90;;;;;;4991937;28;20074;-73
2022/07/16 01:47:20;;;;;;;5.28;1.63;;;15.50;99.90;;;;;;4974646;28;20042;-73
2022/07/16 01:49:45;;;;;;;3.03;1.88;;;15.40;99.90;;;;;;4974341;28;20126;-73
2022/07/16 01:52:14;;;;;;;2.85;1.80;;;15.40;99.90;;;;;;4974543;28;20594;-74
2022/07/16 01:54:43;;;;;;;2.97;1.75;;;15.40;99.90;;;;;;4974539;28;20046;-74
2022/07/16 01:57:08;;;;;;;4.65;1.50;;;15.40;99.90;;;;;;4992019;28;20042;-74
2022/07/16 01:59:34;;;;;;;3.03;1.98;;;15.20;99.90;;;;;;4991754;28;20092;-74
2022/07/16 02:01:59;;;;;;;3.80;1.73;;;15.20;99.90;;;;;;4994451;28;20062;-74
2022/07/16 02:04:25;;;;;;;2.38;1.40;;;15.50;99.90;;;;;;4978197;28;20046;-73
2022/07/16 02:06:51;;;;;;;3.50;1.45;;;15.30;99.90;;;;;;4995740;28;20031;-73
2022/07/16 02:09:16;;;;;;;6.18;2.53;;;15.40;99.90;;;;;;4977824;28;20049;-73
2022/07/16 02:11:42;;;;;;;4.07;1.60;;;15.20;99.90;;;;;;4995480;28;20035;-73
2022/07/16 02:14:07;;;;;;;3.28;2.13;;;15.10;99.90;;;;;;4978023;28;20653;-74
2022/07/16 02:16:33;;;;;;;6.25;1.83;;;15.20;99.90;;;;;;4995486;28;20121;-73
2022/07/16 02:18:58;;;;;;;4.43;1.55;;;15.40;99.90;;;;;;4978186;28;20042;-73
2022/07/16 02:21:24;;;;;;;6.55;1.70;;;15.40;99.90;;;;;;4995143;28;20039;-73
2022/07/16 02:23:50;;;;;;;4.30;1.90;;;15.30;99.90;;;;;;4994046;28;20038;-74
2022/07/16 02:26:15;;;;;;;5.95;2.25;;;15.30;99.90;;;;;;4995251;28;20042;-73
2022/07/16 02:28:41;;;;;;;6.35;1.85;;;15.30;99.90;;;;;;4977711;28;20407;-73
2022/07/16 02:31:06;;;;;;;4.45;2.20;;;15.20;99.90;;;;;;4977512;28;20074;-73
2022/07/16 02:33:32;;;;;;;8.63;2.10;;;15.10;99.90;;;;;;4977765;28;20042;-74
2022/07/16 02:35:57;;;;;;;6.10;2.30;;;15.10;99.90;;;;;;4977935;28;20529;-74
2022/07/16 02:38:23;;;;;;;4.55;1.75;;;15.10;99.90;;;;;;4977849;28;20038;-74
2022/07/16 02:40:49;;;;;;;3.65;1.63;;;15.00;99.90;;;;;;4994721;28;20034;-73
2022/07/16 02:43:14;;;;;;;3.42;1.73;;;15.10;99.90;;;;;;4977424;28;20047;-74
2022/07/16 02:45:41;;;;;;;4.82;1.85;;;15.10;99.90;;;;;;4995084;28;20046;-74
2022/07/16 02:48:08;;;;;;;7.82;2.20;;;15.00;99.90;;;;;;4995136;28;20065;-75
2022/07/16 02:50:33;;;;;;;5.18;1.60;;;15.00;99.90;;;;;;4977259;28;20038;-74
2022/07/16 02:52:59;;;;;;;6.00;1.80;;;15.00;99.90;;;;;;4994765;28;20046;-75
2022/07/16 02:55:26;;;;;;;8.68;1.75;;;15.00;99.90;;;;;;4993496;28;20046;-74
2022/07/16 02:57:52;;;;;;;7.45;1.80;;;14.90;99.90;;;;;;4961112;28;20053;-74
2022/07/16 03:00:18;;;;;;;4.70;1.70;;;14.90;99.90;;;;;;4960959;28;20049;-74
2022/07/16 03:02:43;;;;;;;5.20;1.85;;;15.00;99.90;;;;;;4977172;28;20042;-74
2022/07/16 03:05:09;;;;;;;6.35;1.77;;;15.00;99.90;;;;;;4993435;28;20046;-74
2022/07/16 03:07:35;;;;;;;5.38;1.88;;;14.80;99.90;;;;;;4994508;28;20178;-74
2022/07/16 03:10:01;;;;;;;6.13;1.75;;;15.00;99.90;;;;;;4976939;28;20121;-74
2022/07/16 03:12:26;;;;;;;7.38;1.75;;;14.90;99.90;;;;;;4994224;28;20044;-74
2022/07/16 03:14:52;;;;;;;8.07;2.00;;;14.80;99.90;;;;;;4994376;28;20040;-74
2022/07/16 03:17:18;;;;;;;6.60;1.67;;;14.90;99.90;;;;;;4976883;28;20050;-74
2022/07/16 03:19:43;;;;;;;4.60;1.63;;;14.60;99.90;;;;;;4976572;28;20042;-74
2022/07/16 03:22:09;;;;;;;6.75;2.40;;;14.70;99.90;;;;;;4994225;28;20054;-74
2022/07/16 03:24:35;;;;;;;4.90;1.70;;;14.80;99.90;;;;;;4976835;28;20046;-74
2022/07/16 03:27:00;;;;;;;4.60;2.10;;;14.60;99.90;;;;;;4994143;28;20049;-74
2022/07/16 03:29:27;;;;;;;6.45;2.17;;;14.70;99.90;;;;;;4993949;28;20038;-73
2022/07/16 03:31:53;;;;;;;7.82;2.55;;;14.70;99.90;;;;;;4994048;28;20049;-74
2022/07/16 03:34:19;;;;;;;6.32;2.00;;;14.70;99.90;;;;;;4976900;28;20576;-74
2022/07/16 03:36:44;;;;;;;7.78;2.58;;;14.60;99.90;;;;;;4994098;28;20042;-73
2022/07/16 03:39:10;;;;;;;3.88;1.83;;;14.70;99.90;;;;;;4976370;28;20496;-74
2022/07/16 03:41:37;;;;;;;3.95;2.00;;;14.70;99.90;;;;;;4993655;28;20038;-73
2022/07/16 03:44:05;;;;;;;6.93;2.05;;;14.60;99.90;;;;;;4976312;28;20046;-74
2022/07/16 03:46:31;;;;;;;8.48;2.17;;;14.40;99.90;;;;;;4993925;28;20388;-74
2022/07/16 03:48:57;;;;;;;6.93;1.88;;;14.60;99.90;;;;;;4960191;28;20038;-74
2022/07/16 03:51:23;;;;;;;6.13;2.22;;;14.50;99.90;;;;;;4993425;28;20038;-74
2022/07/16 03:53:49;;;;;;;5.90;2.42;;;14.40;99.90;;;;;;4992366;28;20054;-74
2022/07/16 03:56:15;;;;;;;7.05;2.35;;;14.50;99.90;;;;;;4993583;28;20081;-74
2022/07/16 03:58:41;;;;;;;4.50;2.60;;;14.30;99.90;;;;;;4976105;28;20066;-73
2022/07/16 04:01:07;;;;;;;4.70;1.80;;;14.50;99.90;;;;;;4993346;28;20038;-74
2022/07/16 04:03:34;;;;;;;4.90;2.28;;;14.60;99.90;;;;;;4993392;28;20531;-74
2022/07/16 04:06:00;;;;;;;5.15;2.35;;;14.30;99.90;;;;;;4993406;28;20121;-74
2022/07/16 04:08:25;;;;;;;4.63;2.20;;;14.50;99.90;;;;;;4975890;28;20449;-74
2022/07/16 04:10:51;;;;;;;9.30;3.10;;;14.50;99.90;;;;;;4975581;28;20038;-74
2022/07/16 04:13:16;;;;;;;6.07;2.97;;;14.50;99.90;;;;;;4993364;28;20067;-74
2022/07/16 04:15:43;;;;;;;5.00;2.30;;;14.40;99.90;;;;;;4993260;28;20046;-74
2022/07/16 04:18:08;;;;;;;8.20;3.10;;;14.30;99.90;;;;;;4976047;28;20054;-74
2022/07/16 04:20:34;;;;;;;6.40;2.70;;;14.30;99.90;;;;;;4975499;28;20046;-74
2022/07/16 04:23:00;;;;;;;5.43;2.38;;;14.50;99.90;;;;;;4992566;28;20043;-74
2022/07/16 04:25:26;;;;;;;5.32;2.50;;;14.50;99.90;;;;;;4992952;28;20046;-74
2022/07/16 04:27:51;;;;;;;7.03;2.42;;;14.30;99.90;;;;;;4993320;28;20504;-74
2022/07/16 04:30:18;;;;;;;4.13;2.45;;;14.40;99.90;;;;;;4992872;28;20381;-74
2022/07/16 04:32:44;;;;;;;5.70;2.17;;;14.50;99.90;;;;;;4975362;28;20492;-74
2022/07/16 04:35:11;;;;;;;4.72;2.38;;;14.50;99.90;;;;;;4993021;28;20046;-74
2022/07/16 04:37:37;;;;;;;8.13;2.25;;;14.30;99.90;;;;;;4992827;28;20042;-74
2022/07/16 04:40:04;;;;;;;7.60;2.65;;;14.50;99.90;;;;;;4993259;28;20046;-74
2022/07/16 04:42:30;;;;;;;4.68;2.30;;;14.40;99.90;;;;;;4993489;28;20085;-74
2022/07/16 04:44:56;;;;;;;7.05;2.63;;;14.60;99.90;;;;;;4975509;28;20049;-74
2022/07/16 04:47:21;;;;;;;8.38;2.47;;;14.50;99.90;;;;;;4975245;28;20030;-74
2022/07/16 04:49:47;;;;;;;7.55;3.20;;;14.50;99.90;;;;;;4975016;28;20070;-74
2022/07/16 04:52:13;;;;;;;6.95;2.75;;;14.50;99.90;;;;;;4975012;28;20073;-74
2022/07/16 04:54:38;;;;;;;7.18;2.03;;;14.70;99.90;;;;;;4975273;28;20046;-74
2022/07/16 04:57:04;;;;;;;5.47;2.05;;;14.60;99.90;;;;;;4992710;28;20038;-74
2022/07/16 04:59:30;;;;;;;7.22;2.33;;;15.00;99.90;;;;;;4974866;28;20046;-74
2022/07/16 05:02:56;;;;;;;6.43;2.00;;;15.20;99.90;;;;;;4992593;28;20046;-74
2022/07/16 05:04:41;;;;;;;7.70;2.10;;;15.20;99.90;;;;;;4974991;28;20065;-74
2022/07/16 05:07:06;;;;;;;8.18;2.45;;;15.50;99.90;;;;;;4992329;28;20512;-75
2022/07/16 05:09:32;;;;;;;7.28;1.75;;;15.60;99.90;;;;;;4990865;28;20046;-75
2022/07/16 05:11:57;;;;;;;7.82;1.60;;;15.80;99.90;;;;;;4992520;28;20034;-75
2022/07/16 05:14:23;;;;;;;7.88;2.03;;;15.80;99.90;;;;;;4992387;28;20503;-74
2022/07/16 05:16:48;;;;;;;6.43;1.75;;;15.70;99.90;;;;;;4974980;28;20420;-74
2022/07/16 05:19:14;;;;;;;9.43;1.85;;;15.60;99.90;;;;;;4992081;28;20038;-74
2022/07/16 05:21:39;;;;;;;5.85;1.30;;;15.60;99.90;;;;;;4974755;28;20042;-75
2022/07/16 05:24:05;;;;;;;4.82;1.05;;;15.70;99.90;;;;;;4974855;28;20102;-74
2022/07/16 05:26:31;;;;;;;5.93;2.15;;;15.70;99.90;;;;;;4992429;28;20042;-74
2022/07/16 05:28:56;;;;;;;3.92;1.30;;;16.00;99.90;;;;;;4975025;28;20039;-74
2022/07/16 05:31:22;;;;;;;5.45;1.33;;;16.00;99.90;;;;;;4974516;28;20129;-74
2022/07/16 05:33:47;;;;;;;3.67;1.25;;;16.00;99.90;;;;;;4975051;28;20226;-75
2022/07/16 05:36:13;;;;;;;3.92;1.27;;;16.00;99.90;;;;;;4977479;28;20042;-74
2022/07/16 05:38:39;;;;;;;8.88;1.52;;;16.30;99.90;;;;;;4996335;28;20050;-74
2022/07/16 05:41:04;;;;;;;8.75;1.60;;;16.70;99.90;;;;;;4995987;28;20400;-74
2022/07/16 05:43:30;;;;;;;7.50;1.58;;;16.90;99.90;;;;;;4978525;28;20046;-74
2022/07/16 05:45:55;;;;;;;4.88;1.27;;;17.20;99.90;;;;;;4978567;28;20419;-75
2022/07/16 05:48:21;;;;;;;4.63;1.65;;;17.50;99.90;;;;;;4995039;28;20033;-75
2022/07/16 05:50:47;;;;;;;5.78;1.48;;;17.70;99.90;;;;;;4995554;28;20623;-75
2022/07/16 05:53:12;;;;;;;5.45;1.45;;;17.80;99.90;;;;;;4995887;28;20125;-75
2022/07/16 05:55:38;;;;;;;6.53;1.10;;;18.00;99.90;;;;;;4994498;28;20080;-75
2022/07/16 05:58:03;;;;;;;4.07;2.00;;;18.20;99.90;;;;;;4972928;28;20046;-74
2022/07/16 06:00:29;;;;;;;5.03;1.20;;;18.30;99.90;;;;;;4976808;28;20500;-74
2022/07/16 06:02:54;;;;;;;3.78;0.75;;;18.40;99.90;;;;;;4968327;28;20101;-74
2022/07/16 06:05:20;;;;;;;5.03;1.00;;;18.20;99.90;;;;;;4995443;28;20050;-75
2022/07/16 06:07:45;;;;;;;5.35;1.42;;;17.90;99.90;;;;;;4978177;28;20043;-75
2022/07/16 06:10:11;;;;;;;7.05;1.45;;;17.50;99.90;;;;;;4978129;28;20124;-75
2022/07/16 06:12:37;;;;;;;9.20;2.13;;;17.10;99.90;;;;;;4978136;28;20045;-75
2022/07/16 06:15:03;;;;;;;6.43;1.77;;;17.10;99.90;;;;;;4995739;28;20109;-75
2022/07/16 06:17:29;;;;;;;7.28;1.30;;;16.90;99.90;;;;;;4978460;28;20603;-75
2022/07/16 06:19:54;;;;;;;4.10;1.33;;;17.30;99.90;;;;;;4995103;28;20042;-75
2022/07/16 06:22:20;;;;;;;5.93;1.20;;;17.60;99.90;;;;;;4977940;28;20046;-75
2022/07/16 06:24:45;;;;;;;9.45;1.40;;;17.90;99.90;;;;;;4978064;28;20121;-72
2022/07/16 06:27:11;;;;;;;4.47;1.20;;;18.30;99.90;;;;;;4995426;28;20452;-74
2022/07/16 06:29:38;;;;;;;7.82;1.05;;;18.50;99.90;;;;;;4995064;28;20058;-73
2022/07/16 06:32:04;;;;;;;4.68;0.88;;;18.50;99.00;;;;;;4995038;28;20046;-73
2022/07/16 06:34:29;;;;;;;8.25;1.27;;;18.30;97.60;;;;;;4995070;28;20141;-74
2022/07/16 06:36:55;;;;;;;3.88;1.00;;;18.60;96.90;;;;;;4977676;28;20543;-74
2022/07/16 06:39:21;;;;;;;7.25;1.50;;;18.90;96.70;;;;;;4977379;28;20057;-74
2022/07/16 06:41:46;;;;;;;7.75;1.02;;;19.00;95.70;;;;;;4977487;28;20042;-74
2022/07/16 06:44:12;;;;;;;7.50;1.10;;;18.90;94.40;;;;;;4994957;28;20078;-75
2022/07/16 06:46:37;;;;;;;7.53;1.00;;;19.10;94.10;;;;;;4994487;28;20129;-74
2022/07/16 06:49:03;;;;;;;3.92;0.93;;;19.30;93.40;;;;;;4977406;28;20113;-74
2022/07/16 06:51:29;;;;;;;3.25;0.88;;;19.30;92.80;;;;;;4994704;28;20256;-74
2022/07/16 06:53:55;;;;;;;4.80;0.70;;;19.10;91.50;;;;;;4977323;28;20038;-75
2022/07/16 06:56:20;;;;;;;5.32;0.82;;;19.30;91.40;;;;;;4994869;28;20165;-74
2022/07/16 06:58:46;;;;;;;3.70;0.55;;;19.20;91.00;;;;;;4994712;28;20089;-74
2022/07/16 07:01:11;;;;;;;3.58;0.65;;;19.30;90.20;;;;;;4976905;28;20141;-75
2022/07/16 07:03:38;;;;;;;2.83;0.60;;;19.50;89.00;;;;;;4994502;28;20038;-74
2022/07/16 07:06:04;;;;;;;1.88;0.80;;;19.40;84.00;;;;;;4977245;28;20046;-74
2022/07/16 07:08:30;;;;;;;4.18;0.60;;;19.80;85.40;;;;;;4994756;28;20044;-75
2022/07/16 07:10:55;;;;;;;4.88;0.93;;;19.70;82.10;;;;;;4976810;28;20038;-75
2022/07/16 07:13:21;;;;;;;4.90;1.20;;;19.70;80.80;;;;;;4976907;28;20034;-75
2022/07/16 07:15:47;;;;;;;3.85;0.80;;;19.70;80.60;;;;;;4994453;28;20432;-75
2022/07/16 07:18:12;;;;;;;4.35;1.13;;;19.30;79.40;;;;;;4961130;28;20443;-74
2022/07/16 07:20:38;;;;;;;5.13;0.73;;;19.60;79.70;;;;;;4976599;28;20503;-74
2022/07/16 07:23:04;;;;;;;4.38;0.88;;;19.70;78.40;;;;;;4994237;28;20034;-76
2022/07/16 07:25:30;;;;;;;2.63;0.90;;;19.20;76.70;;;;;;4976744;28;20583;-75
2022/07/16 07:27:55;;;;;;;2.75;0.68;;;19.20;75.80;;;;;;4993707;28;20121;-75
2022/07/16 07:30:21;;;;;;;3.25;0.60;;;19.70;77.10;;;;;;4965185;28;20035;-74
2022/07/16 07:32:47;;;;;;;4.78;0.95;;;19.80;76.10;;;;;;4989549;28;20459;-76
2022/07/16 07:35:12;;;;;;;4.03;0.90;;;19.90;77.10;;;;;;4991188;28;20039;-75
2022/07/16 07:37:38;;;;;;;2.55;0.73;;;19.40;75.30;;;;;;4992905;28;20419;-75
2022/07/16 07:40:04;;;;;;;4.97;0.93;;;19.30;75.40;;;;;;4993707;28;20121;-75
2022/07/16 07:42:31;;;;;;;5.50;0.65;;;19.40;73.40;;;;;;4976215;28;20599;-74
2022/07/16 07:44:56;;;;;;;4.15;0.75;;;19.70;72.90;;;;;;4986239;28;20126;-74
2022/07/16 07:47:22;;;;;;;3.75;0.63;;;20.00;70.50;;;;;;4966293;28;20520;-75
2022/07/16 07:49:48;;;;;;;5.93;0.90;;;20.20;70.50;;;;;;4956629;28;20097;-74
2022/07/16 07:52:13;;;;;;;2.17;0.47;;;20.50;68.50;;;;;;4974356;28;20049;-75
2022/07/16 07:54:39;;;;;;;3.35;0.50;;;20.70;67.80;;;;;;4957186;28;20054;-76
2022/07/16 07:57:05;;;;;;;3.45;0.60;;;20.30;66.90;;;;;;4973910;28;20047;-75
2022/07/16 07:59:30;;;;;;;2.45;0.68;;;20.20;66.50;;;;;;4973479;28;20042;-75
2022/07/16 08:01:56;;;;;;;5.90;0.80;;;19.90;67.10;;;;;;4956738;28;20031;-75
2022/07/16 08:04:22;;;;;;;4.78;0.70;;;19.50;67.90;;;;;;4974186;28;20039;-75
2022/07/16 08:06:47;;;;;;;3.67;1.02;;;19.30;70.20;;;;;;4974215;28;20412;-75
2022/07/16 08:09:13;;;;;;;5.43;1.42;;;18.80;69.90;;;;;;4956310;28;20609;-75
2022/07/16 08:11:38;;;;;;;5.15;1.00;;;18.80;71.10;;;;;;4956520;28;20030;-75
2022/07/16 08:14:04;;;;;;;4.75;0.73;;;18.50;72.60;;;;;;4973936;28;20401;-75
2022/07/16 08:16:30;;;;;;;5.70;0.60;;;18.40;75.10;;;;;;4956447;28;20053;-75
2022/07/16 08:18:55;;;;;;;3.20;0.82;;;18.20;76.20;;;;;;4956651;28;20085;-75
2022/07/16 08:21:21;;;;;;;4.47;1.08;;;18.10;77.60;;;;;;4955942;28;20030;-73
2022/07/16 08:26:31;;;;;;;5.18;1.08;;;18.10;81.40;;;;;;4956177;28;20137;-78
2022/07/16 08:28:56;;;;;;;5.03;1.17;;;18.20;83.70;;;;;;4973814;28;20121;-77
2022/07/16 08:31:22;;;;;;;5.93;1.83;;;18.20;84.20;;;;;;4956580;28;20039;-78
2022/07/16 08:33:48;;;;;;;3.47;0.88;;;18.20;82.80;;;;;;4956624;28;20485;-78
2022/07/16 08:36:13;;;;;;;5.35;1.00;;;18.40;84.20;;;;;;4956322;28;20042;-78
2022/07/16 08:38:39;;;;;;;4.35;1.20;;;18.60;85.60;;;;;;4956525;28;20484;-78
2022/07/16 08:41:05;;;;;;;5.70;1.20;;;18.50;85.20;;;;;;4941236;28;20080;-78
2022/07/16 08:43:32;;;;;;;5.35;0.90;;;18.30;85.60;;;;;;4957378;28;20038;-78
2022/07/16 08:45:58;;;;;;;5.72;1.35;;;18.10;86.60;;;;;;4956894;28;20121;-78
2022/07/16 08:48:24;;;;;;;2.85;1.27;;;18.10;87.90;;;;;;4957893;28;20117;-79
2022/07/16 08:50:53;;;;;;;5.22;1.20;;;18.00;87.90;;;;;;4957352;28;20445;-78
2022/07/16 08:53:23;;;;;;;4.18;1.38;;;18.00;89.00;;;;;;4957436;28;20044;-78
2022/07/16 08:55:52;;;;;;;9.27;1.10;;;18.00;90.60;;;;;;4957512;28;20449;-78
2022/07/16 08:58:18;;;;;;;4.80;0.70;;;17.90;91.20;;;;;;4940864;28;20098;-78
2022/07/16 09:00:45;;;;;;;5.75;1.35;;;17.80;91.20;;;;;;4956604;28;20050;-78
2022/07/16 09:03:14;;;;;;;8.23;1.10;;;17.70;91.10;;;;;;4956800;28;20057;-79
2022/07/16 09:05:41;;;;;;;3.40;1.10;;;17.60;91.10;;;;;;4941053;28;20043;-78
2022/07/16 09:08:06;;;;;;;4.18;0.93;;;17.70;92.50;;;;;;4940896;28;20040;-78
2022/07/16 09:10:36;;;;;;;6.68;1.27;;;17.80;92.90;;;;;;4956287;28;20125;-79
2022/07/16 09:13:03;;;;;;;7.47;1.85;;;17.80;92.00;;;;;;4956864;28;20039;-79
2022/07/16 09:15:31;;;;;;;5.60;0.98;;;18.00;91.90;;;;;;4940691;28;20122;-78
2022/07/16 09:18:20;;;;;;;4.47;1.20;;;18.00;91.80;;;;;;4957222;28;20047;-78
2022/07/16 09:20:52;;;;;;;5.22;1.90;;;18.20;88.30;;;;;;4956411;28;20102;-78
2022/07/16 09:23:35;;;;;;;3.70;1.13;;;18.50;90.00;;;;;;4940437;28;20065;-78
2022/07/16 09:26:09;;;;;;;6.35;1.27;;;19.00;89.90;;;;;;4940539;28;20385;-78
2022/07/16 09:28:43;;;;;;;9.43;1.90;;;19.70;88.70;;;;;;4956744;28;20102;-78
2022/07/16 09:31:09;;;;;;;9.25;1.50;;;19.50;86.10;;;;;;4956471;28;20042;-78
2022/07/16 09:33:35;;;;;;;9.55;1.08;;;19.30;84.80;;;;;;4956541;28;20046;-78
2022/07/16 09:36:07;;;;;;;4.15;1.02;;;19.10;84.10;;;;;;4956791;28;20051;-78
2022/07/16 09:38:49;;;;;;;5.75;1.23;;;19.20;83.60;;;;;;4956667;28;20053;-78
2022/07/16 09:41:15;;;;;;;5.88;1.20;;;19.00;82.70;;;;;;4956482;28;20035;-78
2022/07/16 09:43:42;;;;;;;8.70;1.15;;;19.20;83.10;;;;;;4941011;28;20121;-78
2022/07/16 09:46:14;;;;;;;6.10;1.13;;;19.30;80.80;;;;;;4956354;28;20039;-79
2022/07/16 09:48:42;;;;;;;5.63;0.98;;;19.70;80.40;;;;;;4941121;28;20405;-78
2022/07/16 09:51:18;;;;;;;6.85;1.00;;;19.70;80.60;;;;;;4956318;28;20054;-78
2022/07/16 09:53:46;;;;;;;4.38;1.02;;;19.50;78.70;;;;;;4956645;28;20043;-78
2022/07/16 09:56:23;;;;;;;4.93;0.95;;;18.90;77.90;;;;;;4957103;28;20042;-78
2022/07/16 09:58:52;;;;;;;4.72;0.80;;;19.20;78.40;;;;;;4956313;28;20126;-78
2022/07/16 10:01:18;;;;;;;4.15;0.88;;;19.50;78.70;;;;;;4955911;28;20039;-78
2022/07/16 10:03:47;;;;;;;5.20;1.05;;;19.50;79.00;;;;;;4957138;28;20094;-78
2022/07/16 10:06:13;;;;;;;6.38;1.25;;;19.40;77.50;;;;;;4956785;28;20130;-79
2022/07/16 10:08:41;;;;;;;5.82;0.80;;;19.40;78.90;;;;;;4940761;28;20034;-78
2022/07/16 10:11:07;;;;;;;4.25;0.90;;;19.80;79.80;;;;;;4956098;28;20120;-78
2022/07/16 10:13:34;;;;;;;7.00;1.13;;;19.90;77.30;;;;;;4955860;28;20047;-78
2022/07/16 10:16:01;;;;;;;2.75;1.10;;;20.00;75.40;;;;;;4940104;28;20142;-78
2022/07/16 10:18:46;;;;;;;4.03;0.80;;;20.00;75.70;;;;;;4940266;28;20065;-78
2022/07/16 10:21:15;;;;;;;5.32;0.80;;;19.80;75.60;;;;;;4956762;28;20044;-78
2022/07/16 10:23:45;;;;;;;3.97;0.95;;;19.90;73.80;;;;;;4959521;28;20078;-78
2022/07/16 10:26:19;;;;;;;4.38;1.08;;;20.20;74.50;;;;;;4943782;28;20049;-78
2022/07/16 10:28:50;;;;;;;6.07;1.20;;;20.30;73.40;;;;;;4959887;28;20394;-78
2022/07/16 10:31:36;;;;;;;8.10;1.40;;;20.00;73.10;;;;;;4959080;28;20046;-78
2022/07/16 10:34:16;;;;;;;5.55;1.15;;;19.40;71.30;;;;;;4943637;28;20035;-79
2022/07/16 10:36:54;;;;;;;4.10;0.88;;;19.10;73.90;;;;;;4959554;28;20074;-78
2022/07/16 10:39:22;;;;;;;2.35;1.05;;;19.00;75.30;;;;;;4958042;28;20046;-75
2022/07/16 10:41:52;;;;;;;5.13;1.05;;;19.00;75.70;;;;;;4958189;28;20413;-75
2022/07/16 10:44:19;;;;;;;3.90;1.08;;;19.30;76.70;;;;;;4942028;28;20046;-75
2022/07/16 10:46:51;;;;;;;5.72;1.38;;;19.50;74.10;;;;;;4958002;28;20035;-75
2022/07/16 10:49:16;;;;;;;5.10;0.77;;;19.50;74.60;;;;;;4957835;28;20350;-75
2022/07/16 10:52:00;;;;;;;3.38;0.95;;;19.70;73.80;;;;;;4958319;28;20042;-75
2022/07/16 10:54:28;;;;;;;3.47;0.68;;;19.70;73.10;;;;;;4942211;28;20090;-77
2022/07/16 10:56:56;;;;;;;3.83;1.00;;;19.70;72.30;;;;;;4975179;28;20038;-76
2022/07/16 10:59:29;;;;;;;3.05;1.10;;;20.10;73.60;;;;;;4941676;28;20039;-75
2022/07/16 11:01:57;;;;;;;5.00;1.38;;;20.20;74.00;;;;;;4942141;28;20079;-75
2022/07/16 11:04:39;;;;;;;5.68;0.90;;;20.10;74.80;;;;;;4957727;28;20114;-75
2022/07/16 11:07:10;;;;;;;4.10;0.90;;;20.00;74.80;;;;;;4957852;28;20540;-74
2022/07/16 11:09:39;;;;;;;3.97;1.33;;;19.70;73.50;;;;;;4941781;28;20046;-76
2022/07/16 11:12:19;;;;;;;6.88;1.25;;;19.90;74.10;;;;;;4957572;28;20046;-75
2022/07/16 11:14:53;;;;;;;9.90;1.83;;;20.10;74.80;;;;;;4957870;28;20479;-75
2022/07/16 11:17:22;;;;;;;6.00;1.27;;;20.10;76.40;;;;;;4957672;28;20046;-75
2022/07/16 11:19:50;;;;;;;2.92;0.85;;;19.50;75.00;;;;;;4941143;28;20058;-74
2022/07/16 11:22:21;;;;;;;4.80;1.38;;;19.10;75.30;;;;;;4957519;28;20113;-75
2022/07/16 11:24:54;;;;;;;4.60;1.08;;;19.20;77.00;;;;;;4974931;28;20047;-75
2022/07/16 11:27:31;;;;;;;6.95;1.00;;;19.50;77.00;;;;;;4957517;28;20053;-75
2022/07/16 11:29:58;;;;;;;4.85;0.90;;;19.80;75.60;;;;;;4956933;28;20043;-75
2022/07/16 11:32:25;;;;;;;4.78;1.60;;;19.80;75.30;;;;;;4955975;28;20047;-75
2022/07/16 11:34:50;;;;;;;5.63;1.02;;;19.60;73.10;;;;;;4957338;28;20058;-75
2022/07/16 11:37:16;;;;;;;6.15;1.60;;;19.30;74.30;;;;;;4957196;28;20047;-75
2022/07/16 11:39:42;;;;;;;4.93;0.90;;;19.70;76.60;;;;;;4956902;28;20096;-71
2022/07/16 11:42:08;;;;;;;4.85;0.82;;;19.50;74.50;;;;;;4974506;28;20066;-70
2022/07/16 11:44:37;;;;;;;5.43;1.00;;;19.40;73.90;;;;;;4974348;28;20042;-70
2022/07/16 11:47:05;;;;;;;5.72;1.23;;;19.60;73.80;;;;;;4974377;28;20049;-70
2022/07/16 11:49:36;;;;;;;2.95;0.88;;;19.70;72.50;;;;;;4974463;28;20718;-70
2022/07/16 11:52:21;;;;;;;5.25;1.00;;;19.70;72.50;;;;;;4974169;28;20043;-70
2022/07/16 11:54:47;;;;;;;5.45;1.33;;;19.50;70.50;;;;;;4974398;28;20046;-70
2022/07/16 11:57:13;;;;;;;4.97;1.08;;;19.30;72.00;;;;;;4974214;28;20089;-70
2022/07/16 11:59:47;;;;;;;5.43;1.02;;;19.30;71.70;;;;;;4973592;28;20047;-70
2022/07/16 12:02:18;;;;;;;6.32;1.05;;;19.30;71.00;;;;;;4973934;28;20117;-70
2022/07/16 12:04:48;;;;;;;4.53;1.15;;;19.60;71.90;;;;;;4974000;28;20046;-71
2022/07/16 12:07:24;;;;;;;5.20;1.20;;;19.50;70.90;;;;;;4974130;28;20090;-70
2022/07/16 12:09:51;;;;;;;6.05;0.80;;;19.80;71.40;;;;;;4973709;28;20125;-70
2022/07/16 12:12:19;;;;;;;4.70;0.95;;;20.10;70.50;;;;;;4974051;28;20527;-70
2022/07/16 12:14:53;;;;;;;2.42;0.55;;;19.70;69.30;;;;;;4974036;28;20043;-70
2022/07/16 12:17:37;;;;;;;6.13;1.33;;;19.70;70.00;;;;;;4956981;28;20081;-70
2022/07/16 12:20:12;;;;;;;6.30;1.15;;;20.00;70.40;;;;;;4956344;28;20043;-70
2022/07/16 12:22:50;;;;;;;3.60;0.82;;;20.00;67.20;;;;;;4973795;28;20492;-70
2022/07/16 12:25:31;;;;;;;2.65;0.88;;;20.00;64.80;;;;;;4973811;28;20074;-70
2022/07/16 12:28:05;;;;;;;3.03;0.60;;;19.80;64.30;;;;;;4956005;28;20034;-70
2022/07/16 12:30:49;;;;;;;6.75;1.05;;;19.80;65.30;;;;;;4972932;28;20058;-70
2022/07/16 12:33:15;;;;;;;3.47;0.70;;;19.90;66.30;;;;;;4973083;28;20048;-70
2022/07/16 12:35:55;;;;;;;7.60;1.52;;;20.10;67.70;;;;;;4973552;28;20611;-70
2022/07/16 12:38:39;;;;;;;2.72;0.57;;;20.10;65.90;;;;;;4973510;28;20043;-70
2022/07/16 12:41:08;;;;;;;5.47;1.05;;;19.70;64.70;;;;;;4939728;28;20097;-70
2022/07/16 12:43:34;;;;;;;2.97;0.60;;;19.60;66.10;;;;;;4972840;28;20493;-70
2022/07/16 12:46:00;;;;;;;5.00;1.20;;;19.70;66.50;;;;;;4973456;28;20050;-69
2022/07/16 12:48:28;;;;;;;6.35;1.42;;;19.90;67.40;;;;;;4973533;28;20031;-71
2022/07/16 12:50:54;;;;;;;9.15;0.98;;;20.10;68.50;;;;;;4973117;28;20038;-69
2022/07/16 12:53:20;;;;;;;4.93;1.17;;;19.90;67.50;;;;;;4972980;28;20043;-69